KHMZ

Bedford County Airport

Bedford, Pennsylvania, USA
METAR KHMZ 250515Z AUTO 00000KT 10SM CLR 12/11 A3014 RMK AO2 T01200111
Observed Flight Rules
May-25 @ 05:15 UTC (12 minutes ago) Visual Flight Rules
Visibility Clouds
10 miles
  • Clear skies
Temperatures Readings
Current 12°C / 54°F
Dewpoint 11°C / 52°F
Humidity 94%
Altimeter 30.14" Hg
Pressure 1021 hPa
Elevation 354
METAR KHMZ 250515Z AUTO 00000KT 10SM CLR 12/11 A3014 RMK AO2 T01200111
Observed Flight Rules
May-25 @ 05:15 UTC
(12 minutes ago)
VFR
Clouds
  • Clear skies
Temperature Dewpoint
12°C / 54°F 11°C / 52°F
Humidity Altimeter Pressure
94% 30.14" Hg 1021 hPa